KCPR/CPR METAR and TAF weather

Enter ICAO airport designator
Station Type Date Time Source
KCPR METAR 2019/04/25 01:53 UTC NOAA

KCPR 250153Z 01023G28KT 10SM SCT050 BKN065 OVC085 09/05 A2996 RMK AO2 PK WND 01029/0138 LTG DSNT NE AND E SLP117 T00940050


Station Type Date Time Source
KCPR Decoded METAR 2019/04/25 01:53 UTC NOAA

NATRONA COUNTY INTERNATIONAL AIRPORT , WY, United States (KCPR) 42-54N 106-28W 1621M
Apr 24, 2019 - 09:53 PM EDT / 2019.04.25 0153 UTC
Wind: from the N (010 degrees) at 26 MPH (23 KT) gusting to 32 MPH (28 KT):0
Visibility: 10 mile(s):0
Sky conditions: overcast
Weather: Lightning observed
Temperature: 48.9 F (9.4 C)
Dew Point: 41.0 F (5.0 C)
Relative Humidity: 73%
Pressure (altimeter): 29.96 in. Hg (1014 hPa)
ob: KCPR 250153Z 01023G28KT 10SM SCT050 BKN065 OVC085 09/05 A2996 RMK AO2 PK WND 01029/0138 LTG DSNT NE AND E SLP117 T00940050
cycle: 2

Station Type Date Time Source
KCPR TAF 2019/04/24 18:24 UTC NOAA

TAF KCPR 241722Z 2418/2518 24007KT P6SM FEW080 SCT110
FM242100 28012G18KT P6SM VCTS SCT060CB BKN080
FM250100 35019G27KT 6SM -TSRA SCT035 BKN050CB
FM250500 07010KT P6SM VCSH OVC040
FM250800 VRB06KT P6SM FEW020 SCT060

Example: see airport list